Marble Falls' Hourly Summary for Tuesday, May 15, 2018
Hour Temp
(f)
RH
(%)
Solar Rad.
(MJ/m2)
Rainfall
(in)
Wind
(mph)
5/15/2018 12:00 AM 80 70 0 0.03 1.74
5/15/2018 1:00 AM 76 81 0 0.01 2.7
5/15/2018 2:00 AM 74 83 0 0 6.73
5/15/2018 3:00 AM 73 83 0 0 6.73
5/15/2018 4:00 AM 73 84 0 0 4.65
5/15/2018 5:00 AM 72 87 0 0 1.04
5/15/2018 6:00 AM 71 93 0 0 0.64
5/15/2018 7:00 AM 69 93 0.12 0 0.57
5/15/2018 8:00 AM 74 92 0.66 0 0.6
5/15/2018 9:00 AM 76 78 1.62 0 3.44
5/15/2018 10:00 AM 79 67 2.22 0 3.44
5/15/2018 11:00 AM 82 60 2.78 0 3.17
5/15/2018 12:00 PM 85 54 3.13 0 3.17
5/15/2018 1:00 PM 87 51 3.13 0 3.15
5/15/2018 2:00 PM 89 48 2.8 0 3.15
5/15/2018 3:00 PM 90 45 2.22 0 5.08
5/15/2018 4:00 PM 90 44 2.22 0 5.54
5/15/2018 5:00 PM 90 44 1.61 0 7.27
5/15/2018 6:00 PM 89 45 1.59 0.01 8.77
5/15/2018 7:00 PM 85 74 0.76 0.31 8.77
5/15/2018 8:00 PM 70 74 0 0 8.59
5/15/2018 9:00 PM 71 93 0 0 5.36
5/15/2018 10:00 PM 73 79 0 0.01 9.41
5/15/2018 11:00 PM 73 73 0 0.01 11.29
Data Summary 78 70 24.86 0.38 4.79